sensor_id;sensor_type;location;lat;lon;timestamp;P1;durP1;ratioP1;P2;durP2;ratioP2
63312;SDS011;49442;45.640;13.812;2023-03-21T00:01:16;38.17;;;27.88;;
63312;SDS011;49442;45.640;13.812;2023-03-21T00:03:42;35.45;;;26.77;;
63312;SDS011;49442;45.640;13.812;2023-03-21T00:06:09;38.05;;;27.83;;
63312;SDS011;49442;45.640;13.812;2023-03-21T00:08:36;40.67;;;28.73;;
63312;SDS011;49442;45.640;13.812;2023-03-21T00:11:03;40.63;;;28.05;;
63312;SDS011;49442;45.640;13.812;2023-03-21T00:13:31;44.47;;;29.67;;
63312;SDS011;49442;45.640;13.812;2023-03-21T00:16:02;41.45;;;28.60;;
63312;SDS011;49442;45.640;13.812;2023-03-21T00:18:32;46.85;;;29.55;;
63312;SDS011;49442;45.640;13.812;2023-03-21T00:21:04;44.03;;;30.50;;
63312;SDS011;49442;45.640;13.812;2023-03-21T00:23:33;40.35;;;29.77;;
63312;SDS011;49442;45.640;13.812;2023-03-21T00:25:59;46.85;;;31.55;;
63312;SDS011;49442;45.640;13.812;2023-03-21T00:28:25;43.15;;;30.45;;
63312;SDS011;49442;45.640;13.812;2023-03-21T00:30:56;41.58;;;28.58;;
63312;SDS011;49442;45.640;13.812;2023-03-21T00:33:23;43.33;;;31.38;;
63312;SDS011;49442;45.640;13.812;2023-03-21T00:35:50;46.63;;;29.67;;
63312;SDS011;49442;45.640;13.812;2023-03-21T00:38:17;40.25;;;28.83;;
63312;SDS011;49442;45.640;13.812;2023-03-21T00:40:44;41.88;;;30.08;;
63312;SDS011;49442;45.640;13.812;2023-03-21T00:43:10;46.88;;;30.63;;
63312;SDS011;49442;45.640;13.812;2023-03-21T00:45:36;40.72;;;29.05;;
63312;SDS011;49442;45.640;13.812;2023-03-21T00:48:03;39.70;;;28.48;;
63312;SDS011;49442;45.640;13.812;2023-03-21T00:50:29;38.22;;;28.63;;
63312;SDS011;49442;45.640;13.812;2023-03-21T00:52:56;38.92;;;29.20;;
63312;SDS011;49442;45.640;13.812;2023-03-21T00:55:22;40.75;;;29.75;;
63312;SDS011;49442;45.640;13.812;2023-03-21T00:57:48;36.90;;;27.17;;
63312;SDS011;49442;45.640;13.812;2023-03-21T01:00:14;37.35;;;26.73;;
63312;SDS011;49442;45.640;13.812;2023-03-21T01:02:42;35.38;;;27.33;;
63312;SDS011;49442;45.640;13.812;2023-03-21T01:05:24;36.67;;;27.23;;
63312;SDS011;49442;45.640;13.812;2023-03-21T01:08:11;35.85;;;27.15;;
63312;SDS011;49442;45.640;13.812;2023-03-21T01:10:39;38.35;;;27.05;;
63312;SDS011;49442;45.640;13.812;2023-03-21T01:13:06;37.80;;;25.95;;
63312;SDS011;49442;45.640;13.812;2023-03-21T01:15:33;32.88;;;25.02;;
63312;SDS011;49442;45.640;13.812;2023-03-21T01:17:59;32.60;;;23.88;;
63312;SDS011;49442;45.640;13.812;2023-03-21T01:20:25;34.03;;;24.77;;
63312;SDS011;49442;45.640;13.812;2023-03-21T01:22:51;33.63;;;24.75;;
63312;SDS011;49442;45.640;13.812;2023-03-21T01:25:17;39.72;;;27.15;;
63312;SDS011;49442;45.640;13.812;2023-03-21T01:27:43;32.85;;;24.60;;
63312;SDS011;49442;45.640;13.812;2023-03-21T01:30:08;32.75;;;23.92;;
63312;SDS011;49442;45.640;13.812;2023-03-21T01:32:35;30.25;;;25.15;;
63312;SDS011;49442;45.640;13.812;2023-03-21T01:35:00;34.42;;;25.20;;
63312;SDS011;49442;45.640;13.812;2023-03-21T01:37:26;34.63;;;25.73;;
63312;SDS011;49442;45.640;13.812;2023-03-21T01:39:56;28.73;;;22.60;;
63312;SDS011;49442;45.640;13.812;2023-03-21T01:42:22;29.27;;;21.67;;
63312;SDS011;49442;45.640;13.812;2023-03-21T01:44:55;27.50;;;22.48;;
63312;SDS011;49442;45.640;13.812;2023-03-21T01:47:23;26.90;;;22.58;;
63312;SDS011;49442;45.640;13.812;2023-03-21T01:49:50;26.83;;;22.65;;
63312;SDS011;49442;45.640;13.812;2023-03-21T01:52:20;27.95;;;22.40;;
63312;SDS011;49442;45.640;13.812;2023-03-21T01:54:52;30.38;;;23.58;;
63312;SDS011;49442;45.640;13.812;2023-03-21T01:57:21;36.65;;;26.42;;
63312;SDS011;49442;45.640;13.812;2023-03-21T01:59:57;33.17;;;24.25;;
63312;SDS011;49442;45.640;13.812;2023-03-21T02:02:32;29.98;;;24.10;;
63312;SDS011;49442;45.640;13.812;2023-03-21T02:05:01;28.73;;;22.20;;
63312;SDS011;49442;45.640;13.812;2023-03-21T02:07:32;28.67;;;22.23;;
63312;SDS011;49442;45.640;13.812;2023-03-21T02:12:29;31.75;;;22.33;;
63312;SDS011;49442;45.640;13.812;2023-03-21T02:14:56;31.55;;;22.88;;
63312;SDS011;49442;45.640;13.812;2023-03-21T02:17:32;29.98;;;22.90;;
63312;SDS011;49442;45.640;13.812;2023-03-21T02:20:08;24.27;;;21.20;;
63312;SDS011;49442;45.640;13.812;2023-03-21T02:28:04;24.88;;;19.88;;
63312;SDS011;49442;45.640;13.812;2023-03-21T02:49:33;25.10;;;19.98;;
63312;SDS011;49442;45.640;13.812;2023-03-21T02:52:23;24.10;;;20.23;;
63312;SDS011;49442;45.640;13.812;2023-03-21T02:54:52;25.75;;;20.45;;
63312;SDS011;49442;45.640;13.812;2023-03-21T02:57:21;31.73;;;20.65;;
63312;SDS011;49442;45.640;13.812;2023-03-21T02:59:50;31.35;;;20.77;;
63312;SDS011;49442;45.640;13.812;2023-03-21T03:02:18;26.85;;;19.98;;
63312;SDS011;49442;45.640;13.812;2023-03-21T03:04:48;22.80;;;19.15;;
63312;SDS011;49442;45.640;13.812;2023-03-21T03:07:19;24.23;;;20.98;;
63312;SDS011;49442;45.640;13.812;2023-03-21T03:09:53;27.42;;;19.38;;
63312;SDS011;49442;45.640;13.812;2023-03-21T03:17:38;26.05;;;17.75;;
63312;SDS011;49442;45.640;13.812;2023-03-21T03:20:21;23.45;;;18.17;;
63312;SDS011;49442;45.640;13.812;2023-03-21T03:28:34;24.17;;;19.75;;
63312;SDS011;49442;45.640;13.812;2023-03-21T03:31:03;26.15;;;18.83;;
63312;SDS011;49442;45.640;13.812;2023-03-21T03:33:29;25.73;;;19.23;;
63312;SDS011;49442;45.640;13.812;2023-03-21T03:35:58;24.40;;;19.25;;
63312;SDS011;49442;45.640;13.812;2023-03-21T03:38:25;26.77;;;19.67;;
63312;SDS011;49442;45.640;13.812;2023-03-21T03:41:00;23.17;;;19.92;;
63312;SDS011;49442;45.640;13.812;2023-03-21T03:43:36;25.50;;;19.60;;
63312;SDS011;49442;45.640;13.812;2023-03-21T03:46:12;24.33;;;19.55;;
63312;SDS011;49442;45.640;13.812;2023-03-21T03:48:50;26.95;;;19.38;;
63312;SDS011;49442;45.640;13.812;2023-03-21T03:54:02;25.48;;;20.88;;
63312;SDS011;49442;45.640;13.812;2023-03-21T03:56:32;26.17;;;20.38;;
63312;SDS011;49442;45.640;13.812;2023-03-21T03:58:58;28.58;;;19.35;;
63312;SDS011;49442;45.640;13.812;2023-03-21T04:01:28;29.52;;;19.98;;
63312;SDS011;49442;45.640;13.812;2023-03-21T04:03:54;23.95;;;18.95;;
63312;SDS011;49442;45.640;13.812;2023-03-21T04:06:19;28.45;;;19.35;;
63312;SDS011;49442;45.640;13.812;2023-03-21T04:08:46;27.77;;;20.30;;
63312;SDS011;49442;45.640;13.812;2023-03-21T04:11:12;21.10;;;18.17;;
63312;SDS011;49442;45.640;13.812;2023-03-21T04:13:40;26.02;;;17.92;;
63312;SDS011;49442;45.640;13.812;2023-03-21T04:16:06;23.10;;;17.85;;
63312;SDS011;49442;45.640;13.812;2023-03-21T04:18:32;25.05;;;18.67;;
63312;SDS011;49442;45.640;13.812;2023-03-21T04:20:58;22.75;;;17.58;;
63312;SDS011;49442;45.640;13.812;2023-03-21T04:23:25;23.33;;;17.30;;
63312;SDS011;49442;45.640;13.812;2023-03-21T04:25:53;23.75;;;17.67;;
63312;SDS011;49442;45.640;13.812;2023-03-21T04:28:18;22.05;;;17.83;;
63312;SDS011;49442;45.640;13.812;2023-03-21T04:30:46;28.25;;;18.50;;
63312;SDS011;49442;45.640;13.812;2023-03-21T04:33:13;24.52;;;18.27;;
63312;SDS011;49442;45.640;13.812;2023-03-21T04:35:39;21.23;;;17.55;;
63312;SDS011;49442;45.640;13.812;2023-03-21T04:38:06;24.33;;;18.75;;
63312;SDS011;49442;45.640;13.812;2023-03-21T04:40:32;26.23;;;18.65;;
63312;SDS011;49442;45.640;13.812;2023-03-21T04:42:57;30.35;;;19.52;;
63312;SDS011;49442;45.640;13.812;2023-03-21T04:45:25;22.48;;;18.27;;
63312;SDS011;49442;45.640;13.812;2023-03-21T04:47:51;30.67;;;20.40;;
63312;SDS011;49442;45.640;13.812;2023-03-21T04:50:16;23.27;;;17.65;;
63312;SDS011;49442;45.640;13.812;2023-03-21T04:52:42;21.25;;;18.05;;
63312;SDS011;49442;45.640;13.812;2023-03-21T04:55:08;29.33;;;18.33;;
63312;SDS011;49442;45.640;13.812;2023-03-21T04:57:34;23.42;;;19.05;;
63312;SDS011;49442;45.640;13.812;2023-03-21T05:00:04;22.05;;;16.73;;
63312;SDS011;49442;45.640;13.812;2023-03-21T05:02:35;23.15;;;17.23;;
63312;SDS011;49442;45.640;13.812;2023-03-21T05:05:02;22.20;;;16.25;;
63312;SDS011;49442;45.640;13.812;2023-03-21T05:07:28;24.65;;;17.50;;
63312;SDS011;49442;45.640;13.812;2023-03-21T05:09:55;24.15;;;17.30;;
63312;SDS011;49442;45.640;13.812;2023-03-21T05:12:20;25.08;;;17.17;;
63312;SDS011;49442;45.640;13.812;2023-03-21T05:14:46;20.17;;;16.88;;
63312;SDS011;49442;45.640;13.812;2023-03-21T05:17:12;22.50;;;17.35;;
63312;SDS011;49442;45.640;13.812;2023-03-21T05:19:47;22.65;;;17.05;;
63312;SDS011;49442;45.640;13.812;2023-03-21T05:22:14;28.35;;;17.52;;
63312;SDS011;49442;45.640;13.812;2023-03-21T05:24:43;19.23;;;15.55;;
63312;SDS011;49442;45.640;13.812;2023-03-21T05:27:14;26.10;;;16.80;;
63312;SDS011;49442;45.640;13.812;2023-03-21T05:29:58;25.45;;;19.02;;
63312;SDS011;49442;45.640;13.812;2023-03-21T05:32:35;31.42;;;20.55;;
63312;SDS011;49442;45.640;13.812;2023-03-21T05:35:01;21.17;;;16.67;;
63312;SDS011;49442;45.640;13.812;2023-03-21T05:37:27;21.98;;;17.00;;
63312;SDS011;49442;45.640;13.812;2023-03-21T05:39:53;20.88;;;16.45;;
63312;SDS011;49442;45.640;13.812;2023-03-21T05:42:18;20.88;;;16.15;;
63312;SDS011;49442;45.640;13.812;2023-03-21T05:44:45;23.52;;;17.98;;
63312;SDS011;49442;45.640;13.812;2023-03-21T05:47:11;25.30;;;15.63;;
63312;SDS011;49442;45.640;13.812;2023-03-21T05:49:37;20.17;;;16.17;;
63312;SDS011;49442;45.640;13.812;2023-03-21T05:52:03;19.10;;;15.10;;
63312;SDS011;49442;45.640;13.812;2023-03-21T05:54:29;22.80;;;15.18;;
63312;SDS011;49442;45.640;13.812;2023-03-21T05:56:56;23.60;;;14.93;;
63312;SDS011;49442;45.640;13.812;2023-03-21T05:59:21;19.35;;;14.85;;
63312;SDS011;49442;45.640;13.812;2023-03-21T06:01:47;25.10;;;15.23;;
63312;SDS011;49442;45.640;13.812;2023-03-21T06:04:13;24.73;;;15.55;;
63312;SDS011;49442;45.640;13.812;2023-03-21T06:06:39;23.40;;;16.83;;
63312;SDS011;49442;45.640;13.812;2023-03-21T06:09:05;16.95;;;13.85;;
63312;SDS011;49442;45.640;13.812;2023-03-21T06:11:32;21.48;;;15.85;;
63312;SDS011;49442;45.640;13.812;2023-03-21T06:14:00;18.00;;;13.55;;
63312;SDS011;49442;45.640;13.812;2023-03-21T06:16:26;22.17;;;13.60;;
63312;SDS011;49442;45.640;13.812;2023-03-21T06:18:54;20.60;;;12.43;;
63312;SDS011;49442;45.640;13.812;2023-03-21T06:21:19;13.98;;;12.25;;
63312;SDS011;49442;45.640;13.812;2023-03-21T06:23:45;20.13;;;12.35;;
63312;SDS011;49442;45.640;13.812;2023-03-21T06:26:11;17.02;;;12.05;;
63312;SDS011;49442;45.640;13.812;2023-03-21T06:28:37;18.17;;;13.07;;
63312;SDS011;49442;45.640;13.812;2023-03-21T06:31:03;17.98;;;12.30;;
63312;SDS011;49442;45.640;13.812;2023-03-21T06:33:29;19.58;;;11.52;;
63312;SDS011;49442;45.640;13.812;2023-03-21T06:35:56;19.17;;;12.05;;
63312;SDS011;49442;45.640;13.812;2023-03-21T06:38:23;15.80;;;11.32;;
63312;SDS011;49442;45.640;13.812;2023-03-21T06:40:50;15.02;;;9.57;;
63312;SDS011;49442;45.640;13.812;2023-03-21T06:43:16;14.27;;;9.95;;
63312;SDS011;49442;45.640;13.812;2023-03-21T06:45:42;13.90;;;9.75;;
63312;SDS011;49442;45.640;13.812;2023-03-21T06:48:08;13.73;;;9.65;;
63312;SDS011;49442;45.640;13.812;2023-03-21T06:50:34;18.80;;;9.90;;
63312;SDS011;49442;45.640;13.812;2023-03-21T06:53:00;13.95;;;9.35;;
63312;SDS011;49442;45.640;13.812;2023-03-21T06:55:25;16.80;;;8.93;;
63312;SDS011;49442;45.640;13.812;2023-03-21T06:57:53;15.30;;;8.88;;
63312;SDS011;49442;45.640;13.812;2023-03-21T07:00:19;25.45;;;16.58;;
63312;SDS011;49442;45.640;13.812;2023-03-21T07:02:46;27.33;;;20.55;;
63312;SDS011;49442;45.640;13.812;2023-03-21T07:05:12;27.90;;;19.25;;
63312;SDS011;49442;45.640;13.812;2023-03-21T07:07:38;26.90;;;20.52;;
63312;SDS011;49442;45.640;13.812;2023-03-21T07:10:05;28.67;;;20.52;;
63312;SDS011;49442;45.640;13.812;2023-03-21T07:12:31;23.35;;;19.17;;
63312;SDS011;49442;45.640;13.812;2023-03-21T07:15:01;24.02;;;17.85;;
63312;SDS011;49442;45.640;13.812;2023-03-21T07:17:28;22.75;;;18.55;;
63312;SDS011;49442;45.640;13.812;2023-03-21T07:19:54;23.38;;;17.48;;
63312;SDS011;49442;45.640;13.812;2023-03-21T07:22:20;23.65;;;16.42;;
63312;SDS011;49442;45.640;13.812;2023-03-21T07:24:46;17.88;;;14.57;;
63312;SDS011;49442;45.640;13.812;2023-03-21T07:27:15;20.65;;;15.35;;
63312;SDS011;49442;45.640;13.812;2023-03-21T07:29:42;22.58;;;16.35;;
63312;SDS011;49442;45.640;13.812;2023-03-21T07:32:09;23.30;;;17.65;;
63312;SDS011;49442;45.640;13.812;2023-03-21T07:34:35;26.45;;;18.52;;
63312;SDS011;49442;45.640;13.812;2023-03-21T07:37:02;21.55;;;18.25;;
63312;SDS011;49442;45.640;13.812;2023-03-21T07:39:28;30.98;;;19.40;;
63312;SDS011;49442;45.640;13.812;2023-03-21T07:41:54;28.52;;;20.77;;
63312;SDS011;49442;45.640;13.812;2023-03-21T07:44:23;27.05;;;20.95;;
63312;SDS011;49442;45.640;13.812;2023-03-21T07:46:49;31.20;;;20.45;;
63312;SDS011;49442;45.640;13.812;2023-03-21T07:49:14;29.23;;;21.42;;
63312;SDS011;49442;45.640;13.812;2023-03-21T07:51:40;29.23;;;20.48;;
63312;SDS011;49442;45.640;13.812;2023-03-21T07:54:06;41.40;;;23.92;;
63312;SDS011;49442;45.640;13.812;2023-03-21T07:56:32;33.30;;;23.25;;
63312;SDS011;49442;45.640;13.812;2023-03-21T07:58:58;28.02;;;24.10;;
63312;SDS011;49442;45.640;13.812;2023-03-21T08:01:24;31.23;;;25.20;;
63312;SDS011;49442;45.640;13.812;2023-03-21T08:03:50;36.60;;;25.45;;
63312;SDS011;49442;45.640;13.812;2023-03-21T08:06:18;35.63;;;25.85;;
63312;SDS011;49442;45.640;13.812;2023-03-21T08:08:44;40.55;;;27.80;;
63312;SDS011;49442;45.640;13.812;2023-03-21T08:11:13;36.60;;;25.92;;
63312;SDS011;49442;45.640;13.812;2023-03-21T08:13:39;33.17;;;27.38;;
63312;SDS011;49442;45.640;13.812;2023-03-21T08:16:06;33.50;;;24.52;;
63312;SDS011;49442;45.640;13.812;2023-03-21T08:18:32;33.85;;;25.08;;
63312;SDS011;49442;45.640;13.812;2023-03-21T08:20:58;32.95;;;25.60;;
63312;SDS011;49442;45.640;13.812;2023-03-21T08:23:24;39.90;;;25.75;;
63312;SDS011;49442;45.640;13.812;2023-03-21T08:25:51;38.67;;;28.30;;
63312;SDS011;49442;45.640;13.812;2023-03-21T08:28:20;41.50;;;30.98;;
63312;SDS011;49442;45.640;13.812;2023-03-21T08:30:46;34.33;;;27.55;;
63312;SDS011;49442;45.640;13.812;2023-03-21T08:33:13;38.75;;;28.20;;
63312;SDS011;49442;45.640;13.812;2023-03-21T08:35:39;32.38;;;26.08;;
63312;SDS011;49442;45.640;13.812;2023-03-21T08:38:05;33.28;;;27.42;;
63312;SDS011;49442;45.640;13.812;2023-03-21T08:40:31;33.45;;;25.42;;
63312;SDS011;49442;45.640;13.812;2023-03-21T08:42:58;29.90;;;26.17;;
63312;SDS011;49442;45.640;13.812;2023-03-21T08:45:24;31.42;;;24.55;;
63312;SDS011;49442;45.640;13.812;2023-03-21T08:47:51;34.63;;;23.63;;
63312;SDS011;49442;45.640;13.812;2023-03-21T08:50:22;30.27;;;23.08;;
63312;SDS011;49442;45.640;13.812;2023-03-21T08:52:51;29.05;;;21.13;;
63312;SDS011;49442;45.640;13.812;2023-03-21T08:55:17;23.60;;;18.33;;
63312;SDS011;49442;45.640;13.812;2023-03-21T08:57:43;24.63;;;19.08;;
63312;SDS011;49442;45.640;13.812;2023-03-21T09:00:11;22.40;;;16.67;;
63312;SDS011;49442;45.640;13.812;2023-03-21T09:02:39;25.00;;;17.20;;
63312;SDS011;49442;45.640;13.812;2023-03-21T09:05:06;19.83;;;15.52;;
63312;SDS011;49442;45.640;13.812;2023-03-21T09:07:32;18.95;;;13.43;;
63312;SDS011;49442;45.640;13.812;2023-03-21T09:10:02;17.20;;;13.63;;
63312;SDS011;49442;45.640;13.812;2023-03-21T09:12:28;21.67;;;14.50;;
63312;SDS011;49442;45.640;13.812;2023-03-21T09:14:54;23.30;;;15.10;;
63312;SDS011;49442;45.640;13.812;2023-03-21T09:17:20;17.67;;;14.57;;
63312;SDS011;49442;45.640;13.812;2023-03-21T09:19:45;17.52;;;15.15;;
63312;SDS011;49442;45.640;13.812;2023-03-21T09:22:12;24.10;;;14.80;;
63312;SDS011;49442;45.640;13.812;2023-03-21T09:24:41;18.70;;;14.52;;
63312;SDS011;49442;45.640;13.812;2023-03-21T09:27:07;21.33;;;13.15;;
63312;SDS011;49442;45.640;13.812;2023-03-21T09:29:34;18.48;;;13.25;;
63312;SDS011;49442;45.640;13.812;2023-03-21T09:32:02;17.23;;;11.90;;
63312;SDS011;49442;45.640;13.812;2023-03-21T09:34:30;13.65;;;11.75;;
63312;SDS011;49442;45.640;13.812;2023-03-21T09:36:56;15.38;;;12.20;;
63312;SDS011;49442;45.640;13.812;2023-03-21T09:39:22;21.50;;;13.68;;
63312;SDS011;49442;45.640;13.812;2023-03-21T09:47:08;16.00;;;13.20;;
63312;SDS011;49442;45.640;13.812;2023-03-21T09:49:49;18.65;;;12.32;;
63312;SDS011;49442;45.640;13.812;2023-03-21T09:54:51;12.90;;;11.45;;
63312;SDS011;49442;45.640;13.812;2023-03-21T09:59:46;13.75;;;11.30;;
63312;SDS011;49442;45.640;13.812;2023-03-21T10:04:57;14.60;;;10.27;;
63312;SDS011;49442;45.640;13.812;2023-03-21T10:07:24;16.42;;;10.50;;
63312;SDS011;49442;45.640;13.812;2023-03-21T10:09:54;14.75;;;10.10;;
63312;SDS011;49442;45.640;13.812;2023-03-21T10:12:23;14.95;;;10.25;;
63312;SDS011;49442;45.640;13.812;2023-03-21T10:14:54;18.67;;;11.32;;
63312;SDS011;49442;45.640;13.812;2023-03-21T10:17:33;16.10;;;11.10;;
63312;SDS011;49442;45.640;13.812;2023-03-21T10:20:13;14.20;;;11.00;;
63312;SDS011;49442;45.640;13.812;2023-03-21T10:22:45;13.95;;;8.98;;
63312;SDS011;49442;45.640;13.812;2023-03-21T10:25:14;12.65;;;10.10;;
63312;SDS011;49442;45.640;13.812;2023-03-21T10:27:43;12.98;;;9.82;;
63312;SDS011;49442;45.640;13.812;2023-03-21T10:30:17;9.85;;;7.65;;
63312;SDS011;49442;45.640;13.812;2023-03-21T10:32:48;9.25;;;7.70;;
63312;SDS011;49442;45.640;13.812;2023-03-21T10:35:13;13.40;;;7.82;;
63312;SDS011;49442;45.640;13.812;2023-03-21T10:37:39;11.43;;;8.00;;
63312;SDS011;49442;45.640;13.812;2023-03-21T10:40:05;11.30;;;8.15;;
63312;SDS011;49442;45.640;13.812;2023-03-21T10:42:42;11.00;;;7.93;;
63312;SDS011;49442;45.640;13.812;2023-03-21T10:45:15;11.35;;;7.78;;
63312;SDS011;49442;45.640;13.812;2023-03-21T10:47:43;9.00;;;7.60;;
63312;SDS011;49442;45.640;13.812;2023-03-21T10:50:13;11.38;;;8.10;;
63312;SDS011;49442;45.640;13.812;2023-03-21T10:52:45;11.05;;;8.27;;
63312;SDS011;49442;45.640;13.812;2023-03-21T10:55:28;8.43;;;7.05;;
63312;SDS011;49442;45.640;13.812;2023-03-21T10:58:06;9.05;;;7.45;;
63312;SDS011;49442;45.640;13.812;2023-03-21T11:00:43;11.25;;;7.22;;
63312;SDS011;49442;45.640;13.812;2023-03-21T11:03:31;11.85;;;7.05;;
63312;SDS011;49442;45.640;13.812;2023-03-21T11:06:01;14.15;;;6.78;;
63312;SDS011;49442;45.640;13.812;2023-03-21T11:08:40;7.68;;;5.75;;
63312;SDS011;49442;45.640;13.812;2023-03-21T11:11:12;11.65;;;6.50;;
63312;SDS011;49442;45.640;13.812;2023-03-21T11:13:59;11.07;;;7.15;;
63312;SDS011;49442;45.640;13.812;2023-03-21T11:16:34;10.73;;;8.15;;
63312;SDS011;49442;45.640;13.812;2023-03-21T11:19:11;12.52;;;7.95;;
63312;SDS011;49442;45.640;13.812;2023-03-21T11:21:41;10.80;;;8.98;;
63312;SDS011;49442;45.640;13.812;2023-03-21T11:24:17;16.50;;;9.98;;
63312;SDS011;49442;45.640;13.812;2023-03-21T11:26:45;13.73;;;9.98;;
63312;SDS011;49442;45.640;13.812;2023-03-21T11:29:34;21.67;;;11.02;;
63312;SDS011;49442;45.640;13.812;2023-03-21T11:32:10;14.15;;;10.48;;
63312;SDS011;49442;45.640;13.812;2023-03-21T11:34:59;13.93;;;10.80;;
63312;SDS011;49442;45.640;13.812;2023-03-21T11:42:59;12.73;;;10.43;;
63312;SDS011;49442;45.640;13.812;2023-03-21T11:45:28;19.50;;;12.10;;
63312;SDS011;49442;45.640;13.812;2023-03-21T11:47:54;13.77;;;11.02;;
63312;SDS011;49442;45.640;13.812;2023-03-21T11:58:20;11.63;;;8.88;;
63312;SDS011;49442;45.640;13.812;2023-03-21T12:04:43;14.70;;;9.75;;
63312;SDS011;49442;45.640;13.812;2023-03-21T12:07:26;14.30;;;10.57;;
63312;SDS011;49442;45.640;13.812;2023-03-21T12:24:19;17.35;;;11.48;;
63312;SDS011;49442;45.640;13.812;2023-03-21T12:27:44;12.38;;;10.23;;
63312;SDS011;49442;45.640;13.812;2023-03-21T12:45:47;24.23;;;13.93;;
63312;SDS011;49442;45.640;13.812;2023-03-21T12:51:08;16.98;;;13.55;;
63312;SDS011;49442;45.640;13.812;2023-03-21T12:56:23;20.85;;;16.38;;
63312;SDS011;49442;45.640;13.812;2023-03-21T13:01:35;20.25;;;16.80;;
63312;SDS011;49442;45.640;13.812;2023-03-21T13:04:19;16.50;;;14.63;;
63312;SDS011;49442;45.640;13.812;2023-03-21T13:07:06;22.80;;;16.05;;
63312;SDS011;49442;45.640;13.812;2023-03-21T13:09:38;24.17;;;13.43;;
63312;SDS011;49442;45.640;13.812;2023-03-21T13:12:07;15.77;;;9.73;;
63312;SDS011;49442;45.640;13.812;2023-03-21T13:14:53;19.45;;;13.20;;
63312;SDS011;49442;45.640;13.812;2023-03-21T13:17:31;18.88;;;11.57;;
63312;SDS011;49442;45.640;13.812;2023-03-21T13:20:17;11.63;;;7.70;;
63312;SDS011;49442;45.640;13.812;2023-03-21T13:22:53;17.58;;;9.90;;
63312;SDS011;49442;45.640;13.812;2023-03-21T13:25:20;17.17;;;9.50;;
63312;SDS011;49442;45.640;13.812;2023-03-21T13:27:54;11.20;;;8.15;;
63312;SDS011;49442;45.640;13.812;2023-03-21T13:30:28;19.02;;;13.45;;
63312;SDS011;49442;45.640;13.812;2023-03-21T13:36:05;26.55;;;15.70;;
63312;SDS011;49442;45.640;13.812;2023-03-21T13:38:33;20.53;;;14.27;;
63312;SDS011;49442;45.640;13.812;2023-03-21T13:59:19;12.02;;;8.80;;
63312;SDS011;49442;45.640;13.812;2023-03-21T14:02:19;13.55;;;9.15;;
63312;SDS011;49442;45.640;13.812;2023-03-21T14:04:46;13.95;;;7.63;;
63312;SDS011;49442;45.640;13.812;2023-03-21T14:07:20;8.68;;;7.22;;
63312;SDS011;49442;45.640;13.812;2023-03-21T14:09:54;12.77;;;7.15;;
63312;SDS011;49442;45.640;13.812;2023-03-21T14:12:28;6.57;;;4.20;;
63312;SDS011;49442;45.640;13.812;2023-03-21T14:14:59;10.60;;;7.25;;
63312;SDS011;49442;45.640;13.812;2023-03-21T14:17:29;8.40;;;6.85;;
63312;SDS011;49442;45.640;13.812;2023-03-21T14:19:59;9.25;;;5.68;;
63312;SDS011;49442;45.640;13.812;2023-03-21T14:22:26;8.80;;;6.43;;
63312;SDS011;49442;45.640;13.812;2023-03-21T14:24:54;11.20;;;6.20;;
63312;SDS011;49442;45.640;13.812;2023-03-21T14:27:24;12.18;;;8.27;;
63312;SDS011;49442;45.640;13.812;2023-03-21T14:29:53;9.50;;;7.43;;
63312;SDS011;49442;45.640;13.812;2023-03-21T14:32:24;10.70;;;8.38;;
63312;SDS011;49442;45.640;13.812;2023-03-21T14:34:52;11.77;;;8.65;;
63312;SDS011;49442;45.640;13.812;2023-03-21T14:37:26;9.90;;;8.40;;
63312;SDS011;49442;45.640;13.812;2023-03-21T14:40:03;10.35;;;6.25;;
63312;SDS011;49442;45.640;13.812;2023-03-21T14:42:46;9.82;;;5.63;;
63312;SDS011;49442;45.640;13.812;2023-03-21T14:45:14;9.27;;;6.25;;
63312;SDS011;49442;45.640;13.812;2023-03-21T14:47:55;9.95;;;5.60;;
63312;SDS011;49442;45.640;13.812;2023-03-21T14:50:30;12.05;;;6.32;;
63312;SDS011;49442;45.640;13.812;2023-03-21T14:53:14;12.85;;;6.65;;
63312;SDS011;49442;45.640;13.812;2023-03-21T14:55:45;12.82;;;7.32;;
63312;SDS011;49442;45.640;13.812;2023-03-21T14:58:15;6.13;;;5.47;;
63312;SDS011;49442;45.640;13.812;2023-03-21T15:00:43;8.43;;;5.47;;
63312;SDS011;49442;45.640;13.812;2023-03-21T15:03:13;8.50;;;5.55;;
63312;SDS011;49442;45.640;13.812;2023-03-21T15:05:44;9.52;;;6.45;;
63312;SDS011;49442;45.640;13.812;2023-03-21T15:10:36;9.80;;;7.97;;
63312;SDS011;49442;45.640;13.812;2023-03-21T15:13:15;11.73;;;7.47;;
63312;SDS011;49442;45.640;13.812;2023-03-21T15:15:44;13.88;;;7.68;;
63312;SDS011;49442;45.640;13.812;2023-03-21T15:18:12;8.25;;;5.93;;
63312;SDS011;49442;45.640;13.812;2023-03-21T15:20:41;10.60;;;6.40;;
63312;SDS011;49442;45.640;13.812;2023-03-21T15:23:10;7.28;;;5.72;;
63312;SDS011;49442;45.640;13.812;2023-03-21T15:25:42;9.85;;;5.20;;
63312;SDS011;49442;45.640;13.812;2023-03-21T15:28:11;7.35;;;5.57;;
63312;SDS011;49442;45.640;13.812;2023-03-21T15:30:38;7.80;;;5.35;;
63312;SDS011;49442;45.640;13.812;2023-03-21T15:33:15;9.75;;;4.82;;
63312;SDS011;49442;45.640;13.812;2023-03-21T15:35:51;10.65;;;5.68;;
63312;SDS011;49442;45.640;13.812;2023-03-21T15:38:32;8.68;;;6.65;;
63312;SDS011;49442;45.640;13.812;2023-03-21T15:43:41;12.15;;;8.70;;
63312;SDS011;49442;45.640;13.812;2023-03-21T15:46:14;9.00;;;7.68;;
63312;SDS011;49442;45.640;13.812;2023-03-21T15:48:42;11.90;;;9.38;;
63312;SDS011;49442;45.640;13.812;2023-03-21T15:51:17;15.55;;;8.98;;
63312;SDS011;49442;45.640;13.812;2023-03-21T15:53:46;12.45;;;8.70;;
63312;SDS011;49442;45.640;13.812;2023-03-21T15:56:15;9.10;;;7.05;;
63312;SDS011;49442;45.640;13.812;2023-03-21T15:58:41;8.10;;;7.13;;
63312;SDS011;49442;45.640;13.812;2023-03-21T16:01:15;17.70;;;9.98;;
63312;SDS011;49442;45.640;13.812;2023-03-21T16:03:44;18.85;;;13.50;;
63312;SDS011;49442;45.640;13.812;2023-03-21T16:13:39;14.38;;;11.27;;
63312;SDS011;49442;45.640;13.812;2023-03-21T16:16:05;15.68;;;11.80;;
63312;SDS011;49442;45.640;13.812;2023-03-21T16:18:31;17.63;;;13.48;;
63312;SDS011;49442;45.640;13.812;2023-03-21T16:20:56;20.92;;;13.43;;
63312;SDS011;49442;45.640;13.812;2023-03-21T16:23:23;18.95;;;15.90;;
63312;SDS011;49442;45.640;13.812;2023-03-21T16:25:49;20.40;;;14.80;;
63312;SDS011;49442;45.640;13.812;2023-03-21T16:28:21;19.65;;;14.85;;
63312;SDS011;49442;45.640;13.812;2023-03-21T16:30:47;17.58;;;13.70;;
63312;SDS011;49442;45.640;13.812;2023-03-21T16:33:13;13.55;;;11.48;;
63312;SDS011;49442;45.640;13.812;2023-03-21T16:35:39;14.23;;;11.70;;
63312;SDS011;49442;45.640;13.812;2023-03-21T16:38:05;17.05;;;10.88;;
63312;SDS011;49442;45.640;13.812;2023-03-21T16:40:35;16.27;;;11.02;;
63312;SDS011;49442;45.640;13.812;2023-03-21T16:43:03;13.13;;;10.38;;
63312;SDS011;49442;45.640;13.812;2023-03-21T16:45:29;12.35;;;10.10;;
63312;SDS011;49442;45.640;13.812;2023-03-21T16:47:55;18.58;;;11.82;;
63312;SDS011;49442;45.640;13.812;2023-03-21T16:50:27;16.70;;;11.50;;